Time;durP1;ratioP1;P1;durP2;ratioP2;P2;SDS_P1;SDS_P2;PMS_P1;PMS_P2;Temp;Humidity;BMP_temperature;BMP_pressure;BME280_temperature;BME280_humidity;BME280_pressure;Samples;Min_cycle;Max_cycle;Signal;HPM_P1;HPM_P2
2022/03/23 00:01:42;;;;;;;4.23;2.10;;;;;;;;;;4990324;28;20204;-63
2022/03/23 00:04:10;;;;;;;3.60;2.20;;;;;;;;;;5007075;28;20282;-63
2022/03/23 00:06:42;;;;;;;3.13;2.53;;;;;;;;;;5006591;28;20299;-63
2022/03/23 00:09:08;;;;;;;2.30;2.10;;;;;;;;;;4988512;28;20261;-62
2022/03/23 00:11:36;;;;;;;3.37;2.07;;;;;;;;;;4983651;28;20194;-61
2022/03/23 00:14:05;;;;;;;4.47;2.30;;;;;;;;;;5007664;28;20200;-61
2022/03/23 00:16:41;;;;;;;5.53;2.33;;;;;;;;;;5001963;28;20593;-63
2022/03/23 00:19:08;;;;;;;4.23;2.20;;;;;;;;;;4992103;28;20195;-62
2022/03/23 00:21:37;;;;;;;2.40;2.20;;;;;;;;;;5010169;28;20189;-62
2022/03/23 00:24:06;;;;;;;3.00;2.33;;;;;;;;;;5008464;28;20204;-64
2022/03/23 00:26:33;;;;;;;2.60;2.40;;;;;;;;;;5011397;28;20240;-62
2022/03/23 00:29:01;;;;;;;4.67;2.20;;;;;;;;;;4995451;28;20198;-62
2022/03/23 00:31:28;;;;;;;4.60;2.13;;;;;;;;;;5011218;28;20370;-62
2022/03/23 00:33:56;;;;;;;2.57;2.37;;;;;;;;;;4989508;28;20825;-62
2022/03/23 00:36:24;;;;;;;2.17;1.87;;;;;;;;;;5012425;28;20221;-62
2022/03/23 00:38:53;;;;;;;2.20;1.80;;;;;;;;;;5026497;28;20201;-65
2022/03/23 00:41:21;;;;;;;4.80;2.00;;;;;;;;;;5011481;28;20189;-63
2022/03/23 00:43:48;;;;;;;2.50;1.90;;;;;;;;;;5010451;28;20209;-62
2022/03/23 00:46:16;;;;;;;3.43;2.30;;;;;;;;;;4988202;28;20318;-61
2022/03/23 00:48:44;;;;;;;2.63;2.00;;;;;;;;;;5010472;28;20193;-62
2022/03/23 00:51:11;;;;;;;3.23;1.90;;;;;;;;;;5027310;28;20585;-63
2022/03/23 00:53:38;;;;;;;2.10;1.80;;;;;;;;;;5023874;28;20188;-63
2022/03/23 00:56:06;;;;;;;2.43;2.00;;;;;;;;;;5008853;28;20180;-65
2022/03/23 00:58:34;;;;;;;2.47;1.90;;;;;;;;;;5008904;28;20197;-62
2022/03/23 01:01:01;;;;;;;2.53;2.03;;;;;;;;;;4988712;28;20654;-62
2022/03/23 01:03:29;;;;;;;3.23;1.87;;;;;;;;;;5008204;28;20200;-62
2022/03/23 01:05:57;;;;;;;2.20;2.00;;;;;;;;;;5013205;28;20291;-63
2022/03/23 01:08:24;;;;;;;2.80;1.80;;;;;;;;;;5010123;28;20193;-61
2022/03/23 01:10:51;;;;;;;1.90;1.80;;;;;;;;;;5012482;28;20192;-62
2022/03/23 01:13:18;;;;;;;2.20;1.83;;;;;;;;;;5008984;28;20192;-63
2022/03/23 01:15:49;;;;;;;2.20;2.00;;;;;;;;;;5017622;28;20181;-62
2022/03/23 01:18:17;;;;;;;2.20;1.80;;;;;;;;;;5024038;28;20201;-61
2022/03/23 01:20:45;;;;;;;2.40;1.80;;;;;;;;;;4990574;28;20189;-64
2022/03/23 01:23:12;;;;;;;5.30;2.00;;;;;;;;;;5009402;28;20334;-67
2022/03/23 01:25:38;;;;;;;2.30;2.10;;;;;;;;;;4997749;28;20320;-65
2022/03/23 01:28:05;;;;;;;4.73;1.93;;;;;;;;;;5007617;28;20283;-65
2022/03/23 01:30:32;;;;;;;2.83;2.00;;;;;;;;;;5009374;28;20220;-63
2022/03/23 01:32:59;;;;;;;4.17;1.90;;;;;;;;;;5003989;28;20278;-64
2022/03/23 01:35:36;;;;;;;2.30;1.90;;;;;;;;;;5009557;28;20192;-64
2022/03/23 01:38:03;;;;;;;3.37;1.90;;;;;;;;;;5007353;28;20270;-63
2022/03/23 01:40:31;;;;;;;3.33;2.20;;;;;;;;;;5025482;28;20240;-63
2022/03/23 01:42:59;;;;;;;4.73;1.97;;;;;;;;;;5026492;28;20279;-64
2022/03/23 01:45:26;;;;;;;3.23;2.20;;;;;;;;;;5005949;28;20217;-64
2022/03/23 01:47:53;;;;;;;2.73;2.00;;;;;;;;;;5009814;28;20243;-64
2022/03/23 01:50:20;;;;;;;2.47;2.00;;;;;;;;;;5009283;28;20228;-64
2022/03/23 01:52:47;;;;;;;2.23;1.60;;;;;;;;;;5007566;28;20675;-64
2022/03/23 01:55:17;;;;;;;3.57;2.10;;;;;;;;;;5009558;28;20271;-64
2022/03/23 01:57:51;;;;;;;3.23;2.00;;;;;;;;;;5008308;28;20212;-64
2022/03/23 02:00:19;;;;;;;3.90;1.83;;;;;;;;;;5004072;28;20259;-64
2022/03/23 02:02:47;;;;;;;2.37;2.07;;;;;;;;;;5007180;28;20233;-63
2022/03/23 02:05:15;;;;;;;2.40;1.80;;;;;;;;;;5008769;28;20251;-64
2022/03/23 02:07:43;;;;;;;4.00;2.00;;;;;;;;;;5025244;28;20212;-65
2022/03/23 02:10:11;;;;;;;1.93;1.70;;;;;;;;;;5007517;28;20243;-62
2022/03/23 02:12:38;;;;;;;3.20;2.07;;;;;;;;;;5006378;28;20215;-65
2022/03/23 02:15:14;;;;;;;2.07;1.80;;;;;;;;;;5007039;28;20197;-62
2022/03/23 02:17:42;;;;;;;3.63;1.90;;;;;;;;;;5011086;28;20200;-63
2022/03/23 02:20:12;;;;;;;2.83;2.30;;;;;;;;;;4994090;28;20530;-62
2022/03/23 02:22:39;;;;;;;3.10;2.10;;;;;;;;;;5011710;28;20196;-62
2022/03/23 02:25:08;;;;;;;2.50;1.87;;;;;;;;;;4993420;28;20200;-62
2022/03/23 02:27:40;;;;;;;2.63;1.70;;;;;;;;;;5009736;28;20276;-63
2022/03/23 02:30:10;;;;;;;2.80;1.80;;;;;;;;;;5011188;28;20197;-62
2022/03/23 02:32:37;;;;;;;3.77;1.73;;;;;;;;;;5009729;28;20278;-62
2022/03/23 02:35:07;;;;;;;2.87;1.60;;;;;;;;;;4993074;28;20517;-62
2022/03/23 02:37:35;;;;;;;2.93;1.87;;;;;;;;;;5008952;28;20263;-63
2022/03/23 02:40:06;;;;;;;2.77;1.77;;;;;;;;;;5010187;28;20519;-62
2022/03/23 02:42:38;;;;;;;2.30;1.93;;;;;;;;;;5009315;28;20661;-62
2022/03/23 02:45:14;;;;;;;2.23;1.73;;;;;;;;;;5010637;28;20242;-63
2022/03/23 02:47:44;;;;;;;2.87;2.10;;;;;;;;;;5026130;28;20223;-66
2022/03/23 02:50:11;;;;;;;2.67;2.30;;;;;;;;;;5010181;28;20250;-63
2022/03/23 03:01:52;;;;;;;2.63;1.87;;;;;;;;;;5010470;28;20192;-63
2022/03/23 03:02:14;;;;;;;2.40;2.00;;;;;;;;;;5005263;28;20311;-63
2022/03/23 03:04:23;;;;;;;2.47;2.13;;;;;;;;;;5001353;28;20203;-63
2022/03/23 03:06:51;;;;;;;6.00;2.37;;;;;;;;;;5023891;28;20211;-64
2022/03/23 03:09:19;;;;;;;2.03;1.83;;;;;;;;;;5012605;28;20196;-63
2022/03/23 03:11:47;;;;;;;3.70;2.40;;;;;;;;;;5008612;28;20193;-63
2022/03/23 03:14:14;;;;;;;3.50;2.20;;;;;;;;;;5008278;28;22712;-64
2022/03/23 03:16:41;;;;;;;2.40;2.00;;;;;;;;;;5009443;28;20763;-62
2022/03/23 03:19:10;;;;;;;3.67;2.10;;;;;;;;;;5009284;28;20488;-62
2022/03/23 03:21:39;;;;;;;2.40;2.17;;;;;;;;;;4992982;28;20207;-63
2022/03/23 03:24:06;;;;;;;3.57;1.93;;;;;;;;;;5009031;28;20219;-64
2022/03/23 03:26:34;;;;;;;2.57;1.80;;;;;;;;;;5025351;28;21050;-63
2022/03/23 03:29:04;;;;;;;2.27;2.00;;;;;;;;;;5008072;28;20193;-62
2022/03/23 03:31:32;;;;;;;2.80;1.80;;;;;;;;;;5008033;28;20201;-61
2022/03/23 03:34:00;;;;;;;2.00;1.70;;;;;;;;;;5010669;28;20188;-61
2022/03/23 03:36:27;;;;;;;2.47;1.67;;;;;;;;;;5008753;28;20209;-64
2022/03/23 03:38:54;;;;;;;2.47;1.80;;;;;;;;;;5006491;28;20521;-62
2022/03/23 03:41:21;;;;;;;1.83;1.53;;;;;;;;;;5009251;28;20913;-62
2022/03/23 03:43:51;;;;;;;2.43;1.80;;;;;;;;;;5009164;28;20196;-64
2022/03/23 03:46:19;;;;;;;2.07;1.70;;;;;;;;;;5006547;28;20223;-63
2022/03/23 03:48:47;;;;;;;3.57;1.70;;;;;;;;;;4994142;28;20204;-62
2022/03/23 03:51:14;;;;;;;2.00;1.70;;;;;;;;;;5008711;28;20189;-65
2022/03/23 03:53:42;;;;;;;3.53;1.83;;;;;;;;;;4992858;28;20196;-63
2022/03/23 03:56:11;;;;;;;2.70;1.73;;;;;;;;;;5009036;28;20976;-62
2022/03/23 03:58:42;;;;;;;2.10;1.60;;;;;;;;;;5007567;28;20189;-64
2022/03/23 04:01:10;;;;;;;1.67;1.37;;;;;;;;;;5010359;28;20511;-65
2022/03/23 04:03:37;;;;;;;2.27;1.90;;;;;;;;;;4996158;28;20200;-62
2022/03/23 04:06:06;;;;;;;2.37;1.90;;;;;;;;;;4994907;28;20216;-63
2022/03/23 04:08:34;;;;;;;5.50;2.03;;;;;;;;;;5010976;28;20607;-63
2022/03/23 04:11:01;;;;;;;1.63;1.53;;;;;;;;;;5011249;28;20233;-64
2022/03/23 04:13:28;;;;;;;2.00;1.60;;;;;;;;;;5009417;28;20242;-63
2022/03/23 04:15:55;;;;;;;3.77;1.70;;;;;;;;;;5012667;28;20200;-62
2022/03/23 04:18:21;;;;;;;2.70;1.57;;;;;;;;;;5010637;28;20196;-64
2022/03/23 04:20:48;;;;;;;4.63;1.87;;;;;;;;;;5011051;28;20181;-65
2022/03/23 04:23:14;;;;;;;2.63;1.90;;;;;;;;;;5011394;28;20208;-62
2022/03/23 04:25:41;;;;;;;2.40;1.63;;;;;;;;;;5011048;28;20700;-64
2022/03/23 04:28:07;;;;;;;3.67;1.70;;;;;;;;;;5009075;28;20664;-64
2022/03/23 04:30:34;;;;;;;1.93;1.60;;;;;;;;;;5009972;28;20193;-65
2022/03/23 04:33:01;;;;;;;2.60;1.70;;;;;;;;;;5010546;28;20196;-62
2022/03/23 04:35:28;;;;;;;3.60;1.70;;;;;;;;;;5009386;28;20343;-63
2022/03/23 04:37:55;;;;;;;3.47;1.90;;;;;;;;;;5008800;28;20200;-64
2022/03/23 04:40:22;;;;;;;2.20;1.80;;;;;;;;;;5011212;28;20204;-63
2022/03/23 04:42:49;;;;;;;3.07;1.80;;;;;;;;;;5011250;28;20358;-63
2022/03/23 04:45:17;;;;;;;2.40;1.73;;;;;;;;;;5009619;28;20246;-64
2022/03/23 04:47:44;;;;;;;2.20;2.00;;;;;;;;;;5010473;28;20208;-63
2022/03/23 04:50:12;;;;;;;2.57;1.70;;;;;;;;;;4996282;28;20219;-63
2022/03/23 04:52:40;;;;;;;2.20;2.00;;;;;;;;;;5009486;28;20550;-64
2022/03/23 04:55:09;;;;;;;3.33;2.00;;;;;;;;;;5010039;28;20223;-65
2022/03/23 04:57:36;;;;;;;2.30;1.70;;;;;;;;;;5019959;28;20219;-63
2022/03/23 05:00:06;;;;;;;2.17;1.77;;;;;;;;;;5010480;28;20201;-62
2022/03/23 05:02:33;;;;;;;1.87;1.60;;;;;;;;;;5024841;28;20196;-63
2022/03/23 05:04:59;;;;;;;2.93;2.00;;;;;;;;;;5009079;28;20201;-65
2022/03/23 05:07:26;;;;;;;3.33;1.83;;;;;;;;;;5008258;28;20288;-64
2022/03/23 05:09:52;;;;;;;2.23;1.57;;;;;;;;;;5025694;28;20204;-63
2022/03/23 05:12:19;;;;;;;2.37;1.80;;;;;;;;;;5009668;28;20201;-62
2022/03/23 05:14:45;;;;;;;1.87;1.70;;;;;;;;;;5008851;28;20201;-62
2022/03/23 05:17:12;;;;;;;2.83;1.70;;;;;;;;;;5009654;28;20189;-64
2022/03/23 05:19:39;;;;;;;3.47;1.80;;;;;;;;;;5008502;28;20279;-62
2022/03/23 05:22:05;;;;;;;1.40;1.30;;;;;;;;;;5008941;28;20658;-63
2022/03/23 05:24:32;;;;;;;2.30;1.50;;;;;;;;;;5009580;28;20598;-63
2022/03/23 05:26:58;;;;;;;1.77;1.33;;;;;;;;;;5008697;28;20590;-65
2022/03/23 05:29:25;;;;;;;2.47;1.60;;;;;;;;;;5009898;28;20239;-63
2022/03/23 05:31:52;;;;;;;4.50;1.40;;;;;;;;;;5008419;28;20220;-65
2022/03/23 05:34:19;;;;;;;1.63;1.30;;;;;;;;;;5009161;28;20197;-64
2022/03/23 05:36:46;;;;;;;1.90;1.50;;;;;;;;;;4996619;28;20213;-64
2022/03/23 05:39:13;;;;;;;2.90;1.43;;;;;;;;;;5008524;28;20201;-65
2022/03/23 05:41:40;;;;;;;1.63;1.50;;;;;;;;;;4999862;28;20196;-62
2022/03/23 05:44:07;;;;;;;2.20;1.60;;;;;;;;;;5024931;28;20197;-62
2022/03/23 05:46:34;;;;;;;1.83;1.60;;;;;;;;;;5005692;28;20213;-63
2022/03/23 05:49:00;;;;;;;2.00;1.40;;;;;;;;;;5008153;28;20244;-64
2022/03/23 05:51:28;;;;;;;2.33;1.47;;;;;;;;;;5008296;28;20284;-63
2022/03/23 05:53:54;;;;;;;3.03;1.60;;;;;;;;;;5007642;28;20248;-63
2022/03/23 05:56:21;;;;;;;1.53;1.33;;;;;;;;;;5008491;28;20657;-63
2022/03/23 05:58:48;;;;;;;1.63;1.37;;;;;;;;;;5005670;28;20205;-63
2022/03/23 06:01:15;;;;;;;5.20;1.33;;;;;;;;;;5007932;28;20195;-62
2022/03/23 06:03:43;;;;;;;1.63;1.43;;;;;;;;;;5009348;28;20216;-64
2022/03/23 06:06:10;;;;;;;4.37;1.73;;;;;;;;;;5008998;28;20665;-63
2022/03/23 06:08:37;;;;;;;2.53;1.80;;;;;;;;;;5023254;28;20224;-63
2022/03/23 06:11:03;;;;;;;2.00;1.70;;;;;;;;;;5009390;28;20196;-63
2022/03/23 06:13:30;;;;;;;1.77;1.30;;;;;;;;;;5000227;28;20193;-64
2022/03/23 06:15:56;;;;;;;1.63;1.40;;;;;;;;;;4972806;28;20185;-65
2022/03/23 06:18:23;;;;;;;2.57;1.33;;;;;;;;;;4990145;28;20208;-63
2022/03/23 06:20:49;;;;;;;2.50;1.50;;;;;;;;;;5009083;28;20200;-65
2022/03/23 06:23:16;;;;;;;2.00;1.70;;;;;;;;;;5008451;28;20204;-63
2022/03/23 06:25:43;;;;;;;3.87;1.57;;;;;;;;;;5009595;28;20213;-64
2022/03/23 06:28:09;;;;;;;2.57;1.60;;;;;;;;;;5005797;28;20193;-63
2022/03/23 06:30:36;;;;;;;3.20;1.70;;;;;;;;;;4991345;28;20220;-63
2022/03/23 06:33:03;;;;;;;3.30;1.70;;;;;;;;;;5006097;28;20193;-65
2022/03/23 06:35:30;;;;;;;2.47;1.87;;;;;;;;;;5023554;28;20327;-62
2022/03/23 06:37:57;;;;;;;4.63;1.53;;;;;;;;;;5006740;28;20197;-62
2022/03/23 06:40:24;;;;;;;3.67;1.70;;;;;;;;;;5007251;28;20200;-63
2022/03/23 06:42:51;;;;;;;5.93;1.93;;;;;;;;;;5008528;28;20249;-65
2022/03/23 06:45:17;;;;;;;6.17;2.10;;;;;;;;;;5006983;28;20668;-63
2022/03/23 06:47:44;;;;;;;5.30;1.80;;;;;;;;;;5007590;28;20228;-63
2022/03/23 06:50:10;;;;;;;7.90;2.10;;;;;;;;;;5008588;28;20291;-62
2022/03/23 06:52:37;;;;;;;6.63;2.10;;;;;;;;;;5008602;28;20319;-63
2022/03/23 06:55:04;;;;;;;2.80;1.73;;;;;;;;;;5008273;28;20212;-66
2022/03/23 06:57:31;;;;;;;4.37;1.97;;;;;;;;;;5007297;28;20669;-62
2022/03/23 06:59:57;;;;;;;2.27;1.77;;;;;;;;;;5007741;28;20200;-63
2022/03/23 07:02:25;;;;;;;4.63;1.50;;;;;;;;;;5008118;28;20196;-64
2022/03/23 07:04:52;;;;;;;4.00;1.80;;;;;;;;;;5005845;28;20280;-63
2022/03/23 07:07:20;;;;;;;4.73;1.80;;;;;;;;;;5006249;28;20217;-65
2022/03/23 07:09:47;;;;;;;3.07;1.60;;;;;;;;;;4990218;28;20211;-64
2022/03/23 07:12:14;;;;;;;5.43;2.03;;;;;;;;;;5008442;28;20307;-65
2022/03/23 07:14:41;;;;;;;4.20;2.10;;;;;;;;;;5007606;28;20207;-64
2022/03/23 07:17:08;;;;;;;4.60;2.00;;;;;;;;;;5007616;28;20204;-63
2022/03/23 07:19:38;;;;;;;4.97;1.90;;;;;;;;;;5007610;28;20193;-64
2022/03/23 07:22:05;;;;;;;4.77;1.77;;;;;;;;;;5004154;28;20193;-64
2022/03/23 07:24:32;;;;;;;3.63;1.60;;;;;;;;;;5006911;28;20248;-62
2022/03/23 07:26:59;;;;;;;3.27;1.63;;;;;;;;;;5006258;28;20205;-64
2022/03/23 07:29:26;;;;;;;3.80;1.73;;;;;;;;;;5005682;28;20197;-64
2022/03/23 07:31:52;;;;;;;3.07;1.80;;;;;;;;;;5006799;28;20207;-63
2022/03/23 07:34:19;;;;;;;3.20;1.80;;;;;;;;;;5006072;28;20224;-63
2022/03/23 07:36:48;;;;;;;1.77;1.50;;;;;;;;;;5011284;28;20213;-62
2022/03/23 07:39:20;;;;;;;3.80;1.90;;;;;;;;;;5007295;28;20193;-64
2022/03/23 07:41:50;;;;;;;3.33;1.63;;;;;;;;;;5027933;28;20204;-64
2022/03/23 07:44:18;;;;;;;1.93;1.73;;;;;;;;;;5009717;28;20196;-64
2022/03/23 07:46:45;;;;;;;4.60;1.70;;;;;;;;;;5010219;28;20224;-64
2022/03/23 07:49:14;;;;;;;3.00;1.60;;;;;;;;;;5026324;28;20262;-63
2022/03/23 07:51:41;;;;;;;3.93;1.80;;;;;;;;;;5012804;28;20219;-64
2022/03/23 07:54:08;;;;;;;3.30;2.13;;;;;;;;;;5010296;28;20193;-64
2022/03/23 07:56:35;;;;;;;2.63;1.70;;;;;;;;;;5010545;28;20192;-64
2022/03/23 07:59:03;;;;;;;2.70;1.50;;;;;;;;;;5011614;28;20203;-62
2022/03/23 08:01:30;;;;;;;3.20;1.80;;;;;;;;;;5009556;28;20638;-64
2022/03/23 08:03:56;;;;;;;2.60;1.80;;;;;;;;;;5023591;28;20197;-62
2022/03/23 08:06:24;;;;;;;5.30;1.90;;;;;;;;;;5011891;28;20654;-64
2022/03/23 08:08:52;;;;;;;3.97;1.60;;;;;;;;;;5011758;28;20212;-63
2022/03/23 08:11:19;;;;;;;2.60;1.70;;;;;;;;;;5009686;28;20736;-64
2022/03/23 08:13:45;;;;;;;3.67;1.80;;;;;;;;;;5024956;28;20197;-63
2022/03/23 08:16:12;;;;;;;2.67;1.70;;;;;;;;;;5007174;28;20680;-64
2022/03/23 08:18:39;;;;;;;3.00;2.10;;;;;;;;;;5010326;28;20210;-62
2022/03/23 08:21:06;;;;;;;3.13;2.00;;;;;;;;;;5007832;28;20225;-63
2022/03/23 08:23:33;;;;;;;1.90;1.70;;;;;;;;;;5008026;28;20208;-62
2022/03/23 08:26:02;;;;;;;2.50;2.00;;;;;;;;;;4988609;28;20217;-64
2022/03/23 08:28:29;;;;;;;3.53;1.77;;;;;;;;;;4998260;28;20192;-62
2022/03/23 08:30:57;;;;;;;3.93;1.80;;;;;;;;;;5019809;28;20192;-64
2022/03/23 08:33:25;;;;;;;2.27;1.67;;;;;;;;;;5010691;28;20212;-62
2022/03/23 08:35:52;;;;;;;2.67;1.87;;;;;;;;;;5005499;28;20239;-64
2022/03/23 08:38:22;;;;;;;2.27;1.97;;;;;;;;;;5025180;28;20208;-62
2022/03/23 08:40:48;;;;;;;2.50;1.93;;;;;;;;;;5029502;28;20204;-65
2022/03/23 08:43:15;;;;;;;3.27;2.03;;;;;;;;;;5008737;28;20283;-63
2022/03/23 08:45:42;;;;;;;3.30;2.03;;;;;;;;;;5009963;28;20224;-62
2022/03/23 08:48:09;;;;;;;2.13;1.90;;;;;;;;;;5020421;28;20619;-64
2022/03/23 08:50:36;;;;;;;3.10;2.20;;;;;;;;;;5005299;28;20235;-63
2022/03/23 08:53:04;;;;;;;3.13;2.50;;;;;;;;;;5025070;28;20251;-65
2022/03/23 08:55:32;;;;;;;3.67;2.13;;;;;;;;;;5022094;28;20617;-66
2022/03/23 08:58:00;;;;;;;3.27;2.27;;;;;;;;;;5004786;28;20193;-63
2022/03/23 09:00:27;;;;;;;2.77;2.10;;;;;;;;;;5007687;28;20193;-63
2022/03/23 09:02:54;;;;;;;2.30;1.70;;;;;;;;;;5008375;28;20201;-64
2022/03/23 09:05:22;;;;;;;3.47;1.83;;;;;;;;;;4992034;28;20193;-66
2022/03/23 09:07:50;;;;;;;1.87;1.63;;;;;;;;;;5007335;28;20192;-62
2022/03/23 09:10:20;;;;;;;4.30;1.87;;;;;;;;;;5008529;28;20205;-64
2022/03/23 09:12:47;;;;;;;1.70;0.90;;;;;;;;;;4991295;28;20562;-62
2022/03/23 09:15:17;;;;;;;1.93;1.30;;;;;;;;;;4988335;28;20186;-62
2022/03/23 09:17:45;;;;;;;1.87;1.20;;;;;;;;;;5018984;28;21209;-64
2022/03/23 09:20:14;;;;;;;2.23;1.20;;;;;;;;;;5005649;28;20193;-65
2022/03/23 09:22:44;;;;;;;2.23;1.20;;;;;;;;;;4992659;28;20201;-63
2022/03/23 09:25:14;;;;;;;1.83;1.10;;;;;;;;;;4990435;28;20197;-63
2022/03/23 09:27:44;;;;;;;1.83;1.13;;;;;;;;;;5005146;28;20279;-65
2022/03/23 09:30:13;;;;;;;4.50;1.30;;;;;;;;;;5009386;28;20292;-62
2022/03/23 09:32:42;;;;;;;2.67;1.20;;;;;;;;;;5009292;28;20248;-62
2022/03/23 09:35:11;;;;;;;2.13;1.20;;;;;;;;;;5010496;28;20205;-63
2022/03/23 09:37:48;;;;;;;1.47;1.30;;;;;;;;;;5009319;28;20212;-62
2022/03/23 09:40:27;;;;;;;3.17;1.40;;;;;;;;;;4998797;28;20291;-62
2022/03/23 09:43:05;;;;;;;2.27;1.50;;;;;;;;;;5016945;28;20193;-65
2022/03/23 09:48:09;;;;;;;2.63;1.37;;;;;;;;;;5009941;28;20204;-64
2022/03/23 09:50:40;;;;;;;1.77;1.30;;;;;;;;;;5026846;28;20193;-63
2022/03/23 09:53:08;;;;;;;3.00;1.77;;;;;;;;;;5011588;28;20222;-63
2022/03/23 09:55:39;;;;;;;2.07;1.37;;;;;;;;;;5005283;28;20453;-63
2022/03/23 09:58:11;;;;;;;2.20;1.27;;;;;;;;;;5012871;28;20835;-64
2022/03/23 10:00:44;;;;;;;1.40;0.90;;;;;;;;;;5008076;28;20340;-62
2022/03/23 10:03:51;;;;;;;1.73;1.27;;;;;;;;;;5007006;28;20280;-63
2022/03/23 10:06:36;;;;;;;1.07;0.87;;;;;;;;;;4996920;28;20854;-65
2022/03/23 10:09:52;;;;;;;1.57;0.87;;;;;;;;;;4991710;28;20224;-64
2022/03/23 10:12:48;;;;;;;1.97;1.00;;;;;;;;;;5021744;28;20223;-63
2022/03/23 10:15:40;;;;;;;1.60;1.10;;;;;;;;;;5010820;28;20192;-62
2022/03/23 10:18:25;;;;;;;1.00;0.90;;;;;;;;;;5009958;28;20189;-63
2022/03/23 10:20:52;;;;;;;1.00;0.90;;;;;;;;;;5018097;28;20271;-63
2022/03/23 10:23:24;;;;;;;0.77;0.70;;;;;;;;;;5034165;28;20292;-63
2022/03/23 10:25:51;;;;;;;0.87;0.73;;;;;;;;;;5003585;28;20213;-62
2022/03/23 10:28:19;;;;;;;1.50;1.00;;;;;;;;;;5007204;28;20207;-65
2022/03/23 10:30:47;;;;;;;1.03;0.80;;;;;;;;;;5018546;28;20230;-64
2022/03/23 10:33:24;;;;;;;1.63;1.00;;;;;;;;;;5015406;28;20244;-62
2022/03/23 10:35:54;;;;;;;0.53;0.50;;;;;;;;;;5009100;28;20204;-63
2022/03/23 10:38:24;;;;;;;1.00;0.90;;;;;;;;;;5005849;28;20253;-63
2022/03/23 10:40:52;;;;;;;1.17;1.07;;;;;;;;;;5017356;28;20458;-63
2022/03/23 10:43:34;;;;;;;1.80;0.90;;;;;;;;;;4988082;28;20192;-64
2022/03/23 10:46:08;;;;;;;2.47;1.00;;;;;;;;;;5019202;28;20225;-62
2022/03/23 10:48:35;;;;;;;1.83;1.00;;;;;;;;;;5023293;28;20858;-62
2022/03/23 10:51:01;;;;;;;2.27;1.00;;;;;;;;;;5004752;28;20196;-65
2022/03/23 10:53:38;;;;;;;1.27;1.10;;;;;;;;;;5004911;28;20197;-65
2022/03/23 10:56:06;;;;;;;2.43;0.90;;;;;;;;;;5007467;28;20193;-63
2022/03/23 10:58:35;;;;;;;1.37;1.00;;;;;;;;;;5005032;28;20200;-62
2022/03/23 11:01:09;;;;;;;0.60;0.60;;;;;;;;;;5021398;28;20201;-63
2022/03/23 11:03:43;;;;;;;1.10;0.97;;;;;;;;;;5004351;28;20246;-64
2022/03/23 11:06:12;;;;;;;1.20;0.87;;;;;;;;;;5004228;28;20213;-65
2022/03/23 11:08:39;;;;;;;1.77;0.90;;;;;;;;;;5004571;28;20283;-62
2022/03/23 11:16:48;;;;;;;1.13;0.77;;;;;;;;;;5005317;28;20642;-63
2022/03/23 11:19:26;;;;;;;1.10;0.73;;;;;;;;;;5003650;28;20197;-62
2022/03/23 11:22:17;;;;;;;1.40;0.93;;;;;;;;;;5006176;28;20204;-64
2022/03/23 11:24:47;;;;;;;2.07;1.60;;;;;;;;;;5020258;28;20189;-65
2022/03/23 11:27:18;;;;;;;3.30;1.43;;;;;;;;;;5005475;28;20298;-62
2022/03/23 11:29:47;;;;;;;2.47;1.80;;;;;;;;;;5017033;28;20246;-62
2022/03/23 11:32:17;;;;;;;2.70;1.70;;;;;;;;;;5001999;28;20200;-64
2022/03/23 11:34:51;;;;;;;2.97;1.70;;;;;;;;;;5004381;28;20208;-62
2022/03/23 11:37:21;;;;;;;2.47;1.90;;;;;;;;;;5004414;28;20306;-62
2022/03/23 11:39:48;;;;;;;2.47;1.83;;;;;;;;;;4988026;28;20209;-62
2022/03/23 11:42:17;;;;;;;2.93;1.67;;;;;;;;;;5006542;28;20603;-65
2022/03/23 11:44:46;;;;;;;3.67;1.87;;;;;;;;;;5003988;28;20200;-63
2022/03/23 11:47:39;;;;;;;3.63;1.63;;;;;;;;;;5007348;28;20236;-64
2022/03/23 11:50:44;;;;;;;3.30;1.80;;;;;;;;;;5007892;28;20219;-63
2022/03/23 11:53:28;;;;;;;2.83;1.80;;;;;;;;;;5006129;28;20192;-62
2022/03/23 11:55:56;;;;;;;3.43;1.90;;;;;;;;;;4994033;28;20185;-62
2022/03/23 11:58:37;;;;;;;3.60;2.00;;;;;;;;;;5005133;28;20287;-62
2022/03/23 12:01:12;;;;;;;2.37;1.90;;;;;;;;;;5006632;28;20275;-63
2022/03/23 12:03:53;;;;;;;2.50;1.70;;;;;;;;;;5016284;28;20275;-62
2022/03/23 12:06:36;;;;;;;2.90;1.67;;;;;;;;;;5017306;28;20217;-63
2022/03/23 12:09:03;;;;;;;3.97;1.70;;;;;;;;;;5006399;28;20188;-62
2022/03/23 12:11:41;;;;;;;1.77;1.63;;;;;;;;;;5005700;28;20185;-63
2022/03/23 12:14:24;;;;;;;2.33;1.80;;;;;;;;;;5005536;28;20193;-63
2022/03/23 12:17:01;;;;;;;2.33;1.73;;;;;;;;;;5017059;28;20227;-64
2022/03/23 12:19:33;;;;;;;2.00;1.67;;;;;;;;;;5001550;28;20192;-62
2022/03/23 12:22:05;;;;;;;3.03;1.70;;;;;;;;;;5003533;28;20189;-62
2022/03/23 12:24:56;;;;;;;1.80;1.50;;;;;;;;;;5021192;28;20726;-64
2022/03/23 12:27:50;;;;;;;1.93;1.63;;;;;;;;;;5003282;28;20219;-64
2022/03/23 12:30:20;;;;;;;2.50;1.60;;;;;;;;;;5007664;28;20204;-64
2022/03/23 12:32:47;;;;;;;1.40;1.30;;;;;;;;;;5005517;28;20706;-62
2022/03/23 12:35:14;;;;;;;2.60;1.50;;;;;;;;;;5009235;28;20212;-65
2022/03/23 12:37:43;;;;;;;4.97;1.50;;;;;;;;;;5025083;28;20236;-65
2022/03/23 12:40:14;;;;;;;2.80;1.40;;;;;;;;;;5013945;28;20208;-63
2022/03/23 12:42:42;;;;;;;2.20;1.57;;;;;;;;;;5007553;28;20192;-62
2022/03/23 12:45:16;;;;;;;1.50;1.23;;;;;;;;;;5007621;28;20200;-65
2022/03/23 12:48:05;;;;;;;1.40;1.30;;;;;;;;;;5007550;28;20196;-64
2022/03/23 12:59:21;;;;;;;2.67;1.50;;;;;;;;;;5031338;28;20283;-62
2022/03/23 13:02:19;;;;;;;1.70;1.43;;;;;;;;;;5009852;28;20231;-64
2022/03/23 13:04:47;;;;;;;2.03;1.40;;;;;;;;;;5003966;28;20193;-66
2022/03/23 13:07:29;;;;;;;1.53;1.40;;;;;;;;;;5007246;28;20212;-63
2022/03/23 13:10:08;;;;;;;3.23;1.43;;;;;;;;;;5008716;28;20188;-64
2022/03/23 13:12:36;;;;;;;2.20;1.50;;;;;;;;;;5024796;28;20197;-63
2022/03/23 13:15:11;;;;;;;2.43;1.60;;;;;;;;;;5008074;28;20187;-63
2022/03/23 13:17:46;;;;;;;1.57;1.30;;;;;;;;;;5015933;28;20185;-64
2022/03/23 13:20:15;;;;;;;3.87;1.70;;;;;;;;;;5012087;28;20188;-63
2022/03/23 13:22:42;;;;;;;2.53;1.30;;;;;;;;;;5009753;28;20180;-63
2022/03/23 13:25:17;;;;;;;2.37;1.30;;;;;;;;;;5010342;28;20250;-64
2022/03/23 13:27:43;;;;;;;1.73;1.30;;;;;;;;;;5009735;28;20298;-64
2022/03/23 13:30:13;;;;;;;2.03;1.27;;;;;;;;;;5015811;28;20520;-63
2022/03/23 13:32:45;;;;;;;2.70;1.23;;;;;;;;;;5008212;28;20588;-64
2022/03/23 13:35:20;;;;;;;1.30;1.10;;;;;;;;;;5025884;28;20200;-63
2022/03/23 13:37:59;;;;;;;1.73;1.40;;;;;;;;;;5008997;28;20211;-63
2022/03/23 13:43:19;;;;;;;1.40;1.30;;;;;;;;;;5010045;28;20254;-63
2022/03/23 13:43:21;;;;;;;2.13;1.23;;;;;;;;;;5007588;28;20200;-63
2022/03/23 13:45:57;;;;;;;2.00;1.40;;;;;;;;;;5019441;28;20209;-65
2022/03/23 13:48:31;;;;;;;3.93;1.17;;;;;;;;;;5023039;28;20193;-65
2022/03/23 13:51:00;;;;;;;2.80;1.50;;;;;;;;;;5007352;28;20671;-65
2022/03/23 13:53:28;;;;;;;1.47;1.37;;;;;;;;;;5003833;28;20231;-64
2022/03/23 13:55:56;;;;;;;2.17;1.47;;;;;;;;;;5007157;28;20303;-64
2022/03/23 13:58:27;;;;;;;1.70;1.37;;;;;;;;;;5020911;28;20193;-65
2022/03/23 14:00:56;;;;;;;3.03;1.63;;;;;;;;;;5022973;28;20193;-63
2022/03/23 14:03:32;;;;;;;1.50;1.40;;;;;;;;;;5021633;28;20197;-64
2022/03/23 14:06:15;;;;;;;2.27;1.70;;;;;;;;;;5024145;28;20216;-64
2022/03/23 14:08:52;;;;;;;2.23;1.33;;;;;;;;;;5021552;28;20192;-64
2022/03/23 14:14:19;;;;;;;3.80;1.40;;;;;;;;;;5004818;28;20220;-66
2022/03/23 14:17:09;;;;;;;1.67;1.43;;;;;;;;;;5006714;28;20724;-64
2022/03/23 14:19:40;;;;;;;1.73;1.60;;;;;;;;;;5004839;28;20255;-63
2022/03/23 14:22:13;;;;;;;2.33;1.20;;;;;;;;;;5005500;28;20196;-65
2022/03/23 14:24:41;;;;;;;2.57;1.60;;;;;;;;;;5011073;28;20192;-63
2022/03/23 14:27:26;;;;;;;1.80;1.60;;;;;;;;;;5006390;28;20218;-64
2022/03/23 14:30:06;;;;;;;3.93;2.17;;;;;;;;;;5008263;28;20239;-65
2022/03/23 14:32:38;;;;;;;4.07;2.30;;;;;;;;;;5008842;28;20836;-63
2022/03/23 14:35:12;;;;;;;3.37;2.40;;;;;;;;;;5023575;28;20200;-64
2022/03/23 14:37:45;;;;;;;3.93;2.23;;;;;;;;;;5006110;28;20785;-63
2022/03/23 14:40:23;;;;;;;8.20;3.30;;;;;;;;;;5005271;28;20923;-63
2022/03/23 14:42:51;;;;;;;7.03;3.37;;;;;;;;;;5008008;28;20283;-65
2022/03/23 14:45:42;;;;;;;8.77;3.17;;;;;;;;;;5005970;28;20729;-64
2022/03/23 14:48:26;;;;;;;13.17;3.40;;;;;;;;;;5007845;28;20370;-64
2022/03/23 14:50:55;;;;;;;12.27;3.60;;;;;;;;;;5007896;28;20596;-64
2022/03/23 14:53:27;;;;;;;7.50;3.17;;;;;;;;;;5015625;28;20196;-62
2022/03/23 14:55:57;;;;;;;5.30;3.00;;;;;;;;;;5005636;28;20235;-62
2022/03/23 14:58:35;;;;;;;7.97;2.60;;;;;;;;;;5005188;28;20189;-63
2022/03/23 15:01:05;;;;;;;3.97;2.50;;;;;;;;;;5005242;28;20287;-63
2022/03/23 15:03:33;;;;;;;3.17;2.03;;;;;;;;;;5023461;28;20192;-63
2022/03/23 15:14:17;;;;;;;4.97;1.63;;;;;;;;;;5011562;28;20192;-64
2022/03/23 15:16:44;;;;;;;2.00;1.70;;;;;;;;;;5004053;28;20251;-64
2022/03/23 15:19:12;;;;;;;4.90;2.00;;;;;;;;;;5005822;28;20191;-63
2022/03/23 15:21:41;;;;;;;2.40;1.70;;;;;;;;;;4988461;28;20228;-63
2022/03/23 15:24:08;;;;;;;2.27;1.80;;;;;;;;;;5007938;28;20224;-66
2022/03/23 15:26:35;;;;;;;2.47;1.97;;;;;;;;;;5006496;28;20275;-64
2022/03/23 15:29:04;;;;;;;2.00;1.80;;;;;;;;;;5002985;28;20189;-64
2022/03/23 15:31:31;;;;;;;2.77;2.07;;;;;;;;;;5007208;28;20188;-63
2022/03/23 15:33:58;;;;;;;2.27;2.00;;;;;;;;;;5002810;28;20251;-66
2022/03/23 15:36:29;;;;;;;6.63;2.33;;;;;;;;;;5019125;28;20223;-63